Time;durP1;ratioP1;P1;durP2;ratioP2;P2;SDS_P1;SDS_P2;PMS_P1;PMS_P2;Temp;Humidity;BMP_temperature;BMP_pressure;BME280_temperature;BME280_humidity;BME280_pressure;Samples;Min_cycle;Max_cycle;Signal;HPM_P1;HPM_P2
2022/08/29 00:01:41;;;;;;;;;28.00;27.00;;;;;23.23;71.54;100739.71;110963;1264;13127;-88
2022/08/29 00:04:08;;;;;;;;;26.67;26.00;;;;;23.19;71.54;100741.30;111109;1264;13359;-88
2022/08/29 00:06:36;;;;;;;;;26.00;25.67;;;;;23.12;71.65;100743.08;111076;1264;13275;-87
2022/08/29 00:09:03;;;;;;;;;22.33;22.00;;;;;23.17;71.48;100744.48;111063;1264;13130;-86
2022/08/29 00:11:30;;;;;;;;;15.33;13.00;;;;;23.17;71.29;100744.06;111772;1264;10613;-86
2022/08/29 00:13:58;;;;;;;;;22.67;22.00;;;;;23.14;71.32;100745.34;112045;1264;13357;-87
2022/08/29 00:16:25;;;;;;;;;27.33;27.33;;;;;23.20;71.16;100744.73;111137;1264;13197;-87
2022/08/29 00:18:52;;;;;;;;;23.67;22.00;;;;;23.14;71.14;100748.66;111137;1264;11327;-89
2022/08/29 00:21:20;;;;;;;;;21.33;21.33;;;;;23.14;71.11;100752.55;111029;1264;13318;-87
2022/08/29 00:23:47;;;;;;;;;24.00;24.00;;;;;23.19;70.96;100752.02;111076;1264;13331;-87
2022/08/29 00:26:14;;;;;;;;;17.33;16.00;;;;;23.19;70.89;100749.52;111034;1264;13143;-88
2022/08/29 00:28:41;;;;;;;;;16.33;15.67;;;;;23.15;71.01;100750.86;111091;1264;13256;-88
2022/08/29 00:31:09;;;;;;;;;17.00;17.00;;;;;23.20;70.92;100750.45;111102;1264;13274;-88
2022/08/29 00:33:36;;;;;;;;;21.67;18.67;;;;;23.19;70.87;100750.39;111047;1264;13281;-87
2022/08/29 00:36:04;;;;;;;;;19.67;17.67;;;;;23.18;70.83;100753.09;111066;1264;13882;-89
2022/08/29 00:38:31;;;;;;;;;13.00;13.00;;;;;23.20;70.94;100755.58;111072;1264;13178;-89
2022/08/29 00:40:58;;;;;;;;;21.33;21.00;;;;;23.19;70.94;100751.56;110939;1265;13261;-89
2022/08/29 00:43:26;;;;;;;;;19.00;18.00;;;;;23.18;71.00;100750.02;111092;1264;13202;-87
2022/08/29 00:45:53;;;;;;;;;16.00;13.00;;;;;23.20;70.96;100747.92;111124;1264;13267;-88
2022/08/29 00:48:22;;;;;;;;;18.00;17.67;;;;;23.21;70.88;100750.21;111002;1264;13226;-90
2022/08/29 00:50:54;;;;;;;;;11.00;11.00;;;;;23.22;70.88;100747.77;110959;1264;13340;-87
2022/08/29 00:53:21;;;;;;;;;16.00;14.00;;;;;23.18;70.98;100747.02;111023;1264;13125;-87
2022/08/29 00:55:49;;;;;;;;;17.67;17.67;;;;;23.23;70.88;100748.84;111109;1264;13272;-88
2022/08/29 00:58:17;;;;;;;;;14.00;13.00;;;;;23.19;70.96;100745.52;111111;1263;13261;-89
2022/08/29 01:00:44;;;;;;;;;18.00;17.00;;;;;23.15;71.10;100743.41;111027;1264;13169;-86
2022/08/29 01:03:12;;;;;;;;;15.33;13.67;;;;;23.13;71.22;100741.84;111090;1263;13167;-88
2022/08/29 01:05:39;;;;;;;;;15.67;14.33;;;;;23.16;71.25;100742.61;111013;1264;13091;-87
2022/08/29 01:08:06;;;;;;;;;20.33;18.00;;;;;23.14;71.26;100744.11;111070;1264;13279;-87
2022/08/29 01:13:19;;;;;;;;;15.00;13.00;;;;;23.21;71.38;100745.80;111128;1264;13166;-86
2022/08/29 01:15:46;;;;;;;;;14.00;14.00;;;;;23.21;71.43;100745.84;111083;1264;13107;-89
2022/08/29 01:18:16;;;;;;;;;16.00;14.00;;;;;23.18;71.54;100750.13;111051;1264;13215;-87
2022/08/29 01:20:44;;;;;;;;;18.00;17.67;;;;;23.16;71.73;100752.04;111008;1264;13193;-89
2022/08/29 01:23:11;;;;;;;;;18.00;18.00;;;;;23.23;71.62;100753.24;111055;1264;12963;-87
2022/08/29 01:25:38;;;;;;;;;18.67;17.67;;;;;23.25;71.59;100747.48;111087;1264;10339;-88
2022/08/29 01:28:06;;;;;;;;;21.33;20.33;;;;;23.26;71.62;100745.80;111110;1264;10588;-84
2022/08/29 01:30:36;;;;;;;;;21.00;19.00;;;;;23.28;71.59;100745.83;111127;1264;13098;-88
2022/08/29 01:33:05;;;;;;;;;22.33;20.00;;;;;23.22;71.81;100749.29;111102;1264;13260;-88
2022/08/29 01:35:32;;;;;;;;;21.00;19.33;;;;;23.22;71.86;100750.30;111060;1264;13190;-87
2022/08/29 01:38:00;;;;;;;;;17.00;16.67;;;;;23.16;72.01;100750.83;111100;1263;13163;-87
2022/08/29 01:40:27;;;;;;;;;19.50;17.00;;;;;23.09;72.22;100752.39;111088;1264;13173;-87
2022/08/29 01:42:56;;;;;;;;;23.00;19.00;;;;;23.10;72.28;100755.30;111119;1264;13114;-87
2022/08/29 01:45:23;;;;;;;;;20.67;17.00;;;;;23.06;72.13;100753.35;111094;1264;13076;-86
2022/08/29 01:47:51;;;;;;;;;17.00;16.67;;;;;23.04;71.95;100754.80;111087;1264;11575;-88
2022/08/29 01:50:18;;;;;;;;;21.00;20.67;;;;;23.01;71.87;100760.66;111046;1263;13203;-86
2022/08/29 01:52:45;;;;;;;;;23.33;21.00;;;;;23.00;71.78;100762.33;111049;1264;12989;-87
2022/08/29 01:55:13;;;;;;;;;22.67;21.33;;;;;23.00;71.72;100769.25;111127;1264;10444;-87
2022/08/29 01:57:40;;;;;;;;;28.00;27.67;;;;;22.99;71.65;100773.38;111058;1264;13191;-88
2022/08/29 02:00:07;;;;;;;;;29.67;27.00;;;;;23.03;71.54;100778.13;111085;1264;13179;-89
2022/08/29 02:02:35;;;;;;;;;23.00;23.00;;;;;23.13;71.26;100781.20;111116;1264;13146;-88
2022/08/29 02:05:02;;;;;;;;;27.00;25.67;;;;;23.17;70.97;100784.95;111067;1264;13206;-87
2022/08/29 02:07:30;;;;;;;;;21.00;20.00;;;;;23.19;70.89;100784.72;111093;1264;13095;-87
2022/08/29 02:09:58;;;;;;;;;25.67;20.33;;;;;23.15;70.87;100784.30;111130;1264;15490;-88
2022/08/29 02:12:25;;;;;;;;;27.00;24.00;;;;;23.10;71.07;100781.66;111072;1264;13223;-87
2022/08/29 02:14:53;;;;;;;;;23.00;19.00;;;;;23.01;71.18;100779.66;111110;1264;16603;-88
2022/08/29 02:17:20;;;;;;;;;24.00;21.67;;;;;22.99;71.07;100781.61;111060;1264;13243;-90
2022/08/29 02:19:47;;;;;;;;;17.00;16.00;;;;;22.99;70.92;100781.77;111437;1263;13291;-88
2022/08/29 02:22:15;;;;;;;;;16.00;15.67;;;;;23.02;70.66;100778.66;112153;1264;13368;-88
2022/08/29 02:24:42;;;;;;;;;17.67;17.67;;;;;22.99;70.48;100782.54;111397;1263;13206;-87
2022/08/29 02:27:11;;;;;;;;;17.00;17.00;;;;;22.92;70.27;100783.33;111083;1263;13085;-87
2022/08/29 02:29:38;;;;;;;;;18.67;18.33;;;;;22.90;70.22;100783.73;111063;1264;13194;-88
2022/08/29 02:32:06;;;;;;;;;18.67;17.67;;;;;22.90;70.11;100784.86;111136;1264;13414;-89
2022/08/29 02:34:33;;;;;;;;;18.33;16.00;;;;;22.93;69.95;100784.52;111113;1264;13133;-88
2022/08/29 02:37:00;;;;;;;;;19.33;17.67;;;;;22.99;69.65;100787.92;111114;1264;13200;-89
2022/08/29 02:39:28;;;;;;;;;20.00;19.00;;;;;22.89;69.78;100788.99;111143;1263;13246;-89
2022/08/29 02:41:55;;;;;;;;;23.67;22.33;;;;;22.88;69.76;100791.02;111086;1264;13136;-88
2022/08/29 02:44:22;;;;;;;;;22.67;22.00;;;;;22.88;69.60;100791.67;111072;1264;13239;-87
2022/08/29 02:46:50;;;;;;;;;18.67;18.00;;;;;22.84;69.48;100793.83;111086;1264;15128;-88
2022/08/29 02:49:17;;;;;;;;;18.00;17.33;;;;;22.86;69.35;100789.73;111139;1264;13180;-87
2022/08/29 02:51:44;;;;;;;;;17.33;17.00;;;;;22.81;69.14;100787.90;111072;1264;13244;-90
2022/08/29 02:54:12;;;;;;;;;18.33;17.00;;;;;22.79;69.11;100787.32;111084;1263;13120;-90
2022/08/29 02:56:39;;;;;;;;;12.33;11.00;;;;;22.80;69.13;100790.41;111113;1264;13657;-87
2022/08/29 02:59:07;;;;;;;;;14.67;14.67;;;;;22.84;68.90;100791.02;111149;1264;13189;-87
2022/08/29 03:01:37;;;;;;;;;11.67;11.00;;;;;22.85;68.73;100784.02;110993;1264;15911;-86
2022/08/29 03:04:04;;;;;;;;;13.00;12.33;;;;;22.85;68.60;100789.67;110984;1263;13305;-88
2022/08/29 03:06:32;;;;;;;;;10.00;10.00;;;;;22.84;68.43;100789.38;111062;1264;13114;-87
2022/08/29 03:08:59;;;;;;;;;16.33;15.00;;;;;22.83;68.38;100790.29;111124;1263;13197;-88
2022/08/29 03:11:27;;;;;;;;;12.50;12.50;;;;;22.80;68.52;100797.18;111113;1264;13199;-88
2022/08/29 03:13:54;;;;;;;;;11.00;10.00;;;;;22.76;68.45;100795.86;111116;1264;13229;-89
2022/08/29 03:16:22;;;;;;;;;13.67;11.67;;;;;22.66;68.30;100792.39;111191;1263;13144;-89
2022/08/29 03:18:49;;;;;;;;;15.33;15.33;;;;;22.75;68.08;100793.95;111083;1264;13173;-89
2022/08/29 03:21:16;;;;;;;;;13.00;13.00;;;;;22.78;67.83;100794.16;111155;1264;13176;-87
2022/08/29 03:23:44;;;;;;;;;15.67;14.33;;;;;22.81;67.76;100795.27;111104;1264;13253;-89
2022/08/29 03:26:11;;;;;;;;;15.33;13.33;;;;;22.82;67.70;100795.77;111149;1264;13229;-87
2022/08/29 03:28:38;;;;;;;;;15.00;13.00;;;;;22.81;67.75;100798.40;110953;1263;13114;-87
2022/08/29 03:31:06;;;;;;;;;17.67;15.67;;;;;22.69;67.99;100799.79;110969;1263;13218;-88
2022/08/29 03:33:33;;;;;;;;;21.00;20.00;;;;;22.71;68.14;100803.77;111139;1264;13157;-89
2022/08/29 03:36:00;;;;;;;;;12.33;12.33;;;;;22.70;68.09;100800.40;111142;1263;13186;-89
2022/08/29 03:38:28;;;;;;;;;17.00;16.00;;;;;22.71;68.01;100806.67;111091;1264;10273;-88
2022/08/29 03:40:55;;;;;;;;;16.00;15.33;;;;;22.81;67.79;100804.93;111124;1264;10496;-88
2022/08/29 03:43:22;;;;;;;;;15.00;15.00;;;;;23.11;66.87;100804.13;111139;1263;14828;-88
2022/08/29 03:45:50;;;;;;;;;19.67;17.67;;;;;23.26;66.09;100806.48;111147;1263;10444;-87
2022/08/29 03:48:17;;;;;;;;;18.00;17.00;;;;;23.29;65.64;100808.81;111141;1264;13109;-85
2022/08/29 03:50:45;;;;;;;;;21.00;19.67;;;;;23.25;65.49;100811.71;111126;1264;13108;-88
2022/08/29 03:53:12;;;;;;;;;17.33;16.33;;;;;23.31;65.33;100816.38;111141;1264;13199;-87
2022/08/29 03:55:39;;;;;;;;;20.00;17.50;;;;;23.32;65.07;100817.88;111098;1264;13298;-88
2022/08/29 03:58:07;;;;;;;;;18.67;17.67;;;;;23.37;64.79;100814.94;111159;1264;13687;-87
2022/08/29 04:00:34;;;;;;;;;13.00;12.67;;;;;23.31;64.73;100821.79;111082;1264;16752;-87
2022/08/29 04:03:01;;;;;;;;;18.67;16.67;;;;;23.23;64.69;100816.86;111062;1264;13105;-88
2022/08/29 04:05:28;;;;;;;;;18.33;15.67;;;;;23.33;64.32;100821.98;111062;1263;13074;-88
2022/08/29 04:07:56;;;;;;;;;15.67;14.00;;;;;23.41;63.80;100827.27;111098;1264;13175;-88
2022/08/29 04:10:23;;;;;;;;;14.33;14.33;;;;;23.20;63.83;100822.25;111146;1264;13178;-86
2022/08/29 04:12:51;;;;;;;;;27.33;23.33;;;;;23.10;64.00;100819.66;111092;1263;13185;-87
2022/08/29 04:15:18;;;;;;;;;25.67;24.00;;;;;23.04;64.09;100817.92;111108;1263;13163;-87
2022/08/29 04:17:45;;;;;;;;;22.00;20.67;;;;;22.93;64.29;100816.86;111086;1264;16665;-87
2022/08/29 04:20:13;;;;;;;;;27.33;27.00;;;;;23.02;64.15;100821.67;111081;1263;11818;-88
2022/08/29 04:22:41;;;;;;;;;23.00;21.00;;;;;23.06;63.98;100828.59;111079;1264;10453;-88
2022/08/29 04:25:08;;;;;;;;;31.00;28.00;;;;;22.97;64.09;100829.52;111064;1264;14149;-88
2022/08/29 04:27:36;;;;;;;;;19.50;17.50;;;;;22.92;64.18;100833.45;111084;1263;11787;-88
2022/08/29 04:30:04;;;;;;;;;20.67;17.33;;;;;22.82;64.34;100836.10;111790;1264;14075;-88
2022/08/29 04:32:31;;;;;;;;;13.67;13.00;;;;;22.74;64.43;100837.15;111248;1263;13182;-89
2022/08/29 04:34:58;;;;;;;;;22.33;20.00;;;;;22.73;64.51;100842.19;111080;1264;13200;-88
2022/08/29 04:37:25;;;;;;;;;19.33;18.33;;;;;22.80;64.30;100841.48;111115;1263;13310;-88
2022/08/29 04:39:53;;;;;;;;;22.00;20.33;;;;;22.83;63.96;100843.13;111084;1263;13212;-88
2022/08/29 04:42:20;;;;;;;;;22.00;19.33;;;;;22.80;63.88;100848.05;111154;1264;13219;-86
2022/08/29 04:44:47;;;;;;;;;20.00;17.67;;;;;22.80;63.82;100852.94;111133;1264;13171;-87
2022/08/29 04:47:15;;;;;;;;;15.67;15.00;;;;;22.75;63.80;100855.79;111137;1263;13176;-87
2022/08/29 04:49:42;;;;;;;;;17.00;15.00;;;;;22.72;63.76;100854.48;111156;1264;16856;-88
2022/08/29 04:52:10;;;;;;;;;19.00;15.67;;;;;22.61;63.79;100848.99;111199;1264;13123;-92
2022/08/29 04:54:37;;;;;;;;;15.67;14.67;;;;;22.61;63.83;100851.60;111334;1263;14645;-90
2022/08/29 04:57:04;;;;;;;;;17.00;15.00;;;;;22.67;63.61;100851.94;111146;1263;13180;-89
2022/08/29 04:59:33;;;;;;;;;16.33;15.00;;;;;22.69;63.54;100857.42;111104;1263;13112;-90
2022/08/29 05:02:00;;;;;;;;;12.00;12.00;;;;;22.72;63.44;100857.89;111118;1263;13195;-89
2022/08/29 05:04:28;;;;;;;;;14.33;12.00;;;;;22.74;63.33;100858.98;111164;1264;13092;-90
2022/08/29 05:06:55;;;;;;;;;11.00;11.00;;;;;22.71;63.37;100856.95;111133;1264;13296;-89
2022/08/29 05:09:23;;;;;;;;;10.33;10.00;;;;;22.54;63.69;100859.63;111076;1263;13082;-88
2022/08/29 05:11:50;;;;;;;;;14.67;14.00;;;;;22.29;64.31;100862.41;111034;1264;13122;-88
2022/08/29 05:14:17;;;;;;;;;12.00;11.67;;;;;22.20;64.71;100864.85;111121;1264;13268;-91
2022/08/29 05:16:47;;;;;;;;;14.00;14.00;;;;;22.23;64.59;100862.05;110411;1264;956706;-92
2022/08/29 05:19:15;;;;;;;;;14.00;13.00;;;;;22.26;64.53;100861.19;111257;1264;10525;-90
2022/08/29 05:21:43;;;;;;;;;16.33;13.00;;;;;22.31;64.42;100862.73;111050;1264;13206;-88
2022/08/29 05:24:10;;;;;;;;;14.00;12.00;;;;;22.33;64.41;100870.33;111048;1264;12872;-90
2022/08/29 05:26:37;;;;;;;;;19.00;16.00;;;;;22.27;64.45;100873.38;111200;1264;10411;-90
2022/08/29 05:29:05;;;;;;;;;15.00;14.00;;;;;22.08;64.92;100872.70;111176;1264;10504;-89
2022/08/29 05:31:32;;;;;;;;;17.33;16.33;;;;;21.94;65.24;100870.88;111048;1263;16702;-89
2022/08/29 05:34:00;;;;;;;;;16.33;14.67;;;;;22.06;65.03;100876.60;111186;1263;13187;-91
2022/08/29 05:36:27;;;;;;;;;14.67;13.33;;;;;22.12;64.93;100873.06;111226;1263;16760;-90
2022/08/29 05:38:54;;;;;;;;;21.00;19.00;;;;;22.08;64.98;100874.13;111162;1263;13080;-90
2022/08/29 05:41:22;;;;;;;;;19.67;18.00;;;;;22.13;64.95;100874.11;111146;1264;13429;-92
2022/08/29 05:43:49;;;;;;;;;16.33;14.33;;;;;22.20;64.77;100873.55;111142;1263;13342;-91
2022/08/29 05:46:17;;;;;;;;;19.67;16.00;;;;;22.31;64.58;100874.21;111096;1264;13197;-87
2022/08/29 05:48:44;;;;;;;;;17.00;16.00;;;;;22.36;64.42;100873.20;111067;1262;13133;-86
2022/08/29 05:51:11;;;;;;;;;19.00;15.33;;;;;22.42;64.35;100873.80;110963;1263;13100;-87
2022/08/29 05:53:38;;;;;;;;;16.50;14.00;;;;;22.47;64.28;100875.70;111089;1263;14825;-88
2022/08/29 05:56:06;;;;;;;;;19.00;16.00;;;;;22.50;64.22;100873.20;111053;1263;13202;-88
2022/08/29 05:58:33;;;;;;;;;16.00;15.67;;;;;22.27;64.77;100878.16;111077;1264;11988;-86
2022/08/29 06:01:00;;;;;;;;;15.67;15.33;;;;;22.27;64.88;100875.05;111066;1263;13203;-87
2022/08/29 06:03:28;;;;;;;;;13.33;12.00;;;;;22.04;65.53;100876.17;110986;1264;16777;-87
2022/08/29 06:05:55;;;;;;;;;14.33;14.00;;;;;22.03;65.73;100878.23;111072;1263;13216;-84
2022/08/29 06:08:22;;;;;;;;;14.00;13.00;;;;;22.26;65.36;100882.80;111067;1264;13117;-87
2022/08/29 06:10:50;;;;;;;;;14.33;13.67;;;;;22.31;65.11;100883.86;110872;1264;10571;-86
2022/08/29 06:13:17;;;;;;;;;18.33;17.33;;;;;22.16;65.53;100877.57;110938;1263;12922;-87
2022/08/29 06:15:44;;;;;;;;;19.00;16.67;;;;;22.17;65.98;100878.04;111069;1264;16724;-89
2022/08/29 06:18:12;;;;;;;;;19.00;16.00;;;;;22.28;65.92;100879.64;111045;1263;13179;-89
2022/08/29 06:20:39;;;;;;;;;19.33;16.67;;;;;22.16;66.04;100885.78;111288;1263;13197;-87
2022/08/29 06:23:07;;;;;;;;;16.00;14.00;;;;;22.09;66.29;100886.59;110893;1264;13190;-86
2022/08/29 06:25:34;;;;;;;;;15.00;15.00;;;;;22.21;65.90;100893.22;110789;1264;13173;-86
2022/08/29 06:28:02;;;;;;;;;15.00;15.00;;;;;22.23;65.77;100895.67;111012;1264;13217;-86
2022/08/29 06:30:29;;;;;;;;;15.67;15.00;;;;;22.01;66.46;100897.06;110901;1264;13152;-86
2022/08/29 06:32:56;;;;;;;;;15.67;15.00;;;;;21.81;66.98;100894.13;110868;1264;18010;-86
2022/08/29 06:35:24;;;;;;;;;18.00;17.33;;;;;21.89;67.11;100895.89;110928;1264;13260;-86
2022/08/29 06:37:51;;;;;;;;;18.67;17.00;;;;;22.03;66.91;100901.52;110923;1264;13272;-86
2022/08/29 06:40:18;;;;;;;;;18.33;17.33;;;;;22.07;66.88;100908.10;111578;1264;13506;-87
2022/08/29 06:42:46;;;;;;;;;18.00;16.33;;;;;21.95;66.96;100913.08;111574;1263;13211;-86
2022/08/29 06:45:13;;;;;;;;;16.67;15.33;;;;;21.82;67.23;100914.67;110989;1264;12718;-85
2022/08/29 06:47:40;;;;;;;;;21.33;14.67;;;;;21.84;67.33;100915.70;111058;1264;13427;-89
2022/08/29 06:50:08;;;;;;;;;15.00;14.00;;;;;21.84;67.44;100913.55;111154;1264;11009;-89
2022/08/29 06:52:35;;;;;;;;;14.67;14.00;;;;;21.79;67.61;100913.07;111088;1264;13158;-86
2022/08/29 06:55:04;;;;;;;;;17.00;15.33;;;;;21.77;67.81;100916.66;111104;1264;10287;-90
2022/08/29 06:57:31;;;;;;;;;15.67;15.00;;;;;22.09;67.15;100917.61;111136;1264;13286;-88
2022/08/29 06:59:59;;;;;;;;;19.00;15.33;;;;;22.34;66.59;100921.48;111098;1264;13353;-86
2022/08/29 07:02:26;;;;;;;;;14.00;14.00;;;;;22.60;65.85;100925.27;111284;1264;13043;-91
2022/08/29 07:04:53;;;;;;;;;16.00;15.67;;;;;22.49;66.14;100927.29;111442;1264;13280;-88
2022/08/29 07:07:21;;;;;;;;;17.33;14.33;;;;;22.40;66.77;100929.19;111540;1264;13931;-88
2022/08/29 07:09:48;;;;;;;;;15.00;14.00;;;;;22.36;66.99;100930.72;111092;1263;10393;-87
2022/08/29 07:12:15;;;;;;;;;18.00;15.00;;;;;22.61;66.56;100926.86;111099;1264;10598;-86
2022/08/29 07:14:43;;;;;;;;;16.33;14.00;;;;;22.73;65.93;100922.85;111081;1264;13219;-86
2022/08/29 07:17:10;;;;;;;;;16.00;14.67;;;;;22.51;66.17;100927.27;111103;1264;13137;-86
2022/08/29 07:19:38;;;;;;;;;20.67;16.00;;;;;22.63;66.06;100921.80;111147;1264;10508;-85
2022/08/29 07:22:06;;;;;;;;;22.67;20.00;;;;;22.99;65.41;100922.23;111186;1263;13318;-88
2022/08/29 07:24:34;;;;;;;;;21.33;19.00;;;;;23.23;64.62;100921.51;111214;1264;13211;-87
2022/08/29 07:27:01;;;;;;;;;32.33;26.00;;;;;23.13;64.76;100924.69;111175;1263;13179;-85
2022/08/29 07:29:28;;;;;;;;;28.67;25.00;;;;;23.06;64.84;100917.39;111183;1264;13215;-88
2022/08/29 07:31:56;;;;;;;;;33.00;30.00;;;;;23.09;64.90;100922.07;111106;1264;13188;-88
2022/08/29 07:34:24;;;;;;;;;26.33;25.00;;;;;23.31;64.63;100919.42;111109;1264;13749;-90
2022/08/29 07:36:51;;;;;;;;;24.00;22.00;;;;;23.33;64.25;100922.57;111289;1264;13210;-91
2022/08/29 07:39:19;;;;;;;;;18.33;17.00;;;;;23.49;63.78;100924.45;111207;1264;13228;-92
2022/08/29 07:41:46;;;;;;;;;16.33;16.33;;;;;23.17;64.36;100928.16;111156;1264;13109;-93
2022/08/29 07:44:13;;;;;;;;;19.33;17.67;;;;;23.24;64.51;100928.11;111010;1264;13224;-91
2022/08/29 07:46:41;;;;;;;;;16.33;15.67;;;;;23.27;64.78;100929.71;111192;1263;13266;-92
2022/08/29 07:49:10;;;;;;;;;17.00;15.67;;;;;23.64;64.25;100930.31;111370;1264;13086;-92
2022/08/29 07:51:37;;;;;;;;;17.67;17.67;;;;;23.77;63.82;100931.41;111344;1264;13207;-92
2022/08/29 07:54:05;;;;;;;;;16.00;16.00;;;;;23.94;63.34;100926.63;111246;1264;13612;-92
2022/08/29 07:56:32;;;;;;;;;17.67;17.67;;;;;23.85;63.16;100926.23;111254;1264;13158;-91
2022/08/29 07:59:00;;;;;;;;;22.00;21.00;;;;;23.75;62.89;100929.95;111339;1264;10515;-91
2022/08/29 08:01:27;;;;;;;;;18.33;18.33;;;;;23.90;62.28;100927.94;111288;1263;13222;-90
2022/08/29 08:03:54;;;;;;;;;18.67;18.33;;;;;23.88;62.46;100932.76;111193;1264;10893;-91
2022/08/29 08:06:22;;;;;;;;;17.33;17.33;;;;;23.92;62.43;100940.30;111372;1264;14572;-91
2022/08/29 08:08:49;;;;;;;;;18.00;17.67;;;;;24.11;61.82;100942.03;111434;1263;13048;-92
2022/08/29 08:11:16;;;;;;;;;15.00;14.33;;;;;24.20;61.53;100942.55;111431;1263;10442;-93
2022/08/29 08:13:44;;;;;;;;;17.67;17.00;;;;;24.35;61.26;100945.96;111313;1263;13121;-91
2022/08/29 08:16:11;;;;;;;;;17.33;17.00;;;;;24.34;60.97;100945.11;111364;1263;13163;-92
2022/08/29 08:18:39;;;;;;;;;13.00;13.00;;;;;24.23;60.79;100942.20;111394;1263;10396;-92
2022/08/29 08:21:06;;;;;;;;;16.67;16.00;;;;;24.39;60.70;100939.45;111447;1264;10482;-91
2022/08/29 08:23:38;;;;;;;;;12.00;12.00;;;;;24.52;60.50;100942.27;111338;1262;13195;-94
2022/08/29 08:26:09;;;;;;;;;16.00;13.33;;;;;24.48;60.22;100938.98;111480;1264;13174;-93
2022/08/29 08:28:36;;;;;;;;;14.00;13.00;;;;;24.44;60.34;100942.30;111533;1264;13164;-94
2022/08/29 08:31:04;;;;;;;;;16.00;13.33;;;;;24.31;60.45;100951.56;111586;1263;13236;-94
2022/08/29 08:33:31;;;;;;;;;15.33;13.67;;;;;23.86;60.85;100952.14;111557;1264;13206;-92
2022/08/29 08:35:59;;;;;;;;;16.33;16.00;;;;;23.56;61.73;100954.40;111587;1263;13110;-92
2022/08/29 08:38:30;;;;;;;;;16.67;16.67;;;;;23.45;61.98;100957.91;111511;1264;13133;-90
2022/08/29 08:40:57;;;;;;;;;14.00;14.00;;;;;23.42;62.13;100958.13;111357;1264;13248;-93
2022/08/29 08:43:26;;;;;;;;;18.00;18.00;;;;;23.43;62.19;100962.02;111348;1263;13193;-93
2022/08/29 08:45:54;;;;;;;;;19.50;17.00;;;;;23.23;62.81;100963.40;111270;1264;13276;-92
2022/08/29 08:48:21;;;;;;;;;18.33;18.33;;;;;23.47;62.31;100965.52;111272;1263;13188;-91
2022/08/29 08:50:49;;;;;;;;;15.00;14.00;;;;;23.64;61.67;100959.77;111524;1264;13881;-91
2022/08/29 08:53:19;;;;;;;;;15.33;13.67;;;;;23.97;61.16;100960.08;112159;1263;13088;-92
2022/08/29 08:55:54;;;;;;;;;17.00;16.67;;;;;24.23;60.85;100959.21;111954;1264;13130;-95
2022/08/29 08:58:23;;;;;;;;;16.00;16.00;;;;;24.28;61.00;100958.70;111664;1264;13193;-93
2022/08/29 09:00:52;;;;;;;;;16.00;13.00;;;;;24.28;60.92;100961.98;111714;1264;13124;-92
2022/08/29 09:03:20;;;;;;;;;16.00;16.00;;;;;24.37;60.34;100965.67;111465;1263;13101;-93
2022/08/29 09:05:47;;;;;;;;;14.67;13.33;;;;;24.32;59.73;100959.02;111349;1265;13177;-92
2022/08/29 09:08:15;;;;;;;;;14.33;13.00;;;;;24.29;59.49;100960.05;111338;1264;13160;-91
2022/08/29 09:10:42;;;;;;;;;14.00;13.00;;;;;24.42;59.33;100960.73;111350;1263;17092;-91
2022/08/29 09:13:10;;;;;;;;;15.33;15.33;;;;;24.61;58.94;100959.25;111386;1264;13232;-94
2022/08/29 09:15:37;;;;;;;;;18.00;14.67;;;;;24.88;58.73;100958.16;111330;1264;13123;-91
2022/08/29 09:18:05;;;;;;;;;18.00;17.00;;;;;24.85;58.70;100958.85;111357;1263;13282;-92
2022/08/29 09:20:32;;;;;;;;;13.67;13.67;;;;;24.74;59.04;100964.27;111448;1264;13270;-92
2022/08/29 09:23:00;;;;;;;;;18.00;17.00;;;;;24.76;58.81;100962.50;111408;1264;13277;-92
2022/08/29 09:25:29;;;;;;;;;13.33;12.67;;;;;24.65;58.89;100963.05;111543;1264;13215;-91
2022/08/29 09:27:57;;;;;;;;;25.00;24.00;;;;;24.49;58.90;100968.66;111411;1264;13092;-90
2022/08/29 09:30:24;;;;;;;;;20.67;19.00;;;;;24.13;59.47;100974.31;111247;1263;13211;-91
2022/08/29 09:32:51;;;;;;;;;17.67;17.33;;;;;24.08;59.76;100974.94;111492;1263;13169;-92
2022/08/29 09:35:19;;;;;;;;;17.00;14.33;;;;;24.10;59.72;100976.35;111636;1264;13291;-93
2022/08/29 09:37:46;;;;;;;;;15.33;15.33;;;;;24.23;59.74;100975.27;111692;1263;13308;-93
2022/08/29 09:40:16;;;;;;;;;17.00;17.00;;;;;24.41;59.41;100974.44;111537;1263;13187;-90
2022/08/29 09:42:43;;;;;;;;;20.00;17.67;;;;;24.56;59.19;100973.92;111304;1263;13355;-92
2022/08/29 09:45:10;;;;;;;;;18.67;18.00;;;;;24.70;59.10;100974.16;111197;1263;13533;-90
2022/08/29 09:47:38;;;;;;;;;15.00;14.00;;;;;24.49;59.20;100975.54;111139;1264;16795;-91
2022/08/29 09:50:05;;;;;;;;;14.00;14.00;;;;;24.32;58.91;100979.52;111150;1264;13177;-89
2022/08/29 09:52:33;;;;;;;;;13.50;13.00;;;;;24.16;59.01;100981.30;111153;1264;13951;-89
2022/08/29 09:55:00;;;;;;;;;17.00;16.00;;;;;24.15;59.24;100979.66;111147;1264;13100;-91
2022/08/29 09:57:28;;;;;;;;;17.33;16.33;;;;;24.14;59.48;100982.34;111194;1264;10528;-90
2022/08/29 09:59:55;;;;;;;;;16.33;16.33;;;;;24.17;59.68;100979.80;111138;1264;13212;-91
2022/08/29 10:02:23;;;;;;;;;18.00;17.00;;;;;24.42;59.44;100981.16;111229;1263;13279;-90
2022/08/29 10:04:51;;;;;;;;;18.00;18.00;;;;;24.31;59.44;100985.36;111247;1264;13191;-87
2022/08/29 10:07:18;;;;;;;;;18.00;17.00;;;;;24.20;59.64;100984.86;111197;1264;13197;-89
2022/08/29 10:09:46;;;;;;;;;16.67;16.00;;;;;24.14;59.78;100981.60;111097;1264;13139;-88
2022/08/29 10:12:14;;;;;;;;;19.67;18.67;;;;;24.12;59.44;100986.33;111237;1264;13204;-88
2022/08/29 10:14:42;;;;;;;;;17.33;16.00;;;;;24.09;58.91;100986.41;111164;1263;13183;-90
2022/08/29 10:19:54;;;;;;;;;16.67;15.33;;;;;23.92;59.11;100975.64;111120;1264;13203;-89
2022/08/29 10:22:21;;;;;;;;;16.00;14.00;;;;;24.23;59.14;100976.12;111170;1264;13075;-89
2022/08/29 10:24:50;;;;;;;;;16.00;15.33;;;;;24.47;58.71;100976.70;111070;1264;13082;-87
2022/08/29 10:27:18;;;;;;;;;17.33;14.00;;;;;24.36;58.30;100973.36;111107;1264;13200;-87
2022/08/29 10:29:46;;;;;;;;;15.33;13.00;;;;;24.37;58.52;100974.39;111018;1264;13105;-89
2022/08/29 10:32:14;;;;;;;;;17.00;14.67;;;;;24.54;58.15;100968.96;111074;1263;10554;-90
2022/08/29 10:34:44;;;;;;;;;14.00;13.33;;;;;24.53;57.60;100966.81;111128;1263;16779;-87
2022/08/29 10:37:12;;;;;;;;;13.00;13.00;;;;;24.33;57.74;100970.30;111126;1264;13119;-88
2022/08/29 10:39:39;;;;;;;;;16.67;15.33;;;;;24.13;58.16;100972.09;111097;1263;12977;-91
2022/08/29 10:42:08;;;;;;;;;14.00;13.00;;;;;23.99;58.72;100968.52;111098;1264;13187;-89
2022/08/29 10:44:36;;;;;;;;;17.00;16.33;;;;;23.94;59.33;100965.77;111079;1264;13114;-90
2022/08/29 10:47:03;;;;;;;;;13.00;12.00;;;;;24.26;59.08;100963.17;111084;1264;13307;-90
2022/08/29 10:49:30;;;;;;;;;16.67;16.00;;;;;24.42;58.66;100961.89;111079;1264;13153;-89
2022/08/29 10:51:58;;;;;;;;;17.67;16.67;;;;;24.61;58.44;100961.95;111117;1264;13279;-90
2022/08/29 10:54:25;;;;;;;;;15.33;13.00;;;;;24.80;58.10;100957.89;111076;1263;13824;-90
2022/08/29 10:56:53;;;;;;;;;14.00;14.00;;;;;24.80;58.12;100960.84;110924;1263;13181;-91
2022/08/29 10:59:20;;;;;;;;;16.33;14.67;;;;;24.85;57.75;100958.58;111072;1264;12951;-89
2022/08/29 11:01:48;;;;;;;;;15.00;14.33;;;;;24.73;57.31;100957.49;111176;1264;10582;-89
2022/08/29 11:04:17;;;;;;;;;14.00;13.00;;;;;24.72;57.46;100963.27;111152;1263;16848;-90
2022/08/29 11:06:44;;;;;;;;;13.33;13.33;;;;;24.67;57.84;100959.77;111077;1264;13183;-87
2022/08/29 11:09:12;;;;;;;;;13.33;13.00;;;;;24.58;57.72;100960.73;111121;1263;13191;-90